createdAt,value
2018-10-16T00:02:03.939Z,94.50
2018-10-16T00:05:08.546Z,94.80
2018-10-16T00:08:13.606Z,94.90
2018-10-16T00:11:18.295Z,94.80
2018-10-16T00:14:21.214Z,94.90
2018-10-16T00:17:26.019Z,94.40
2018-10-16T00:20:31.975Z,94.80
2018-10-16T00:23:37.790Z,94.70
2018-10-16T00:26:41.290Z,94.50
2018-10-16T00:29:47.226Z,94.40
2018-10-16T00:32:52.093Z,94.70
2018-10-16T00:35:56.004Z,94.90
2018-10-16T00:39:00.262Z,95.10
2018-10-16T00:42:04.951Z,95.30
2018-10-16T00:45:10.571Z,95.30
2018-10-16T00:48:13.719Z,95.40
2018-10-16T00:51:20.485Z,95.20
2018-10-16T00:54:25.094Z,95.00
2018-10-16T00:57:29.795Z,95.00
2018-10-16T01:00:33.782Z,95.30
2018-10-16T01:03:39.167Z,95.70
2018-10-16T01:06:43.936Z,95.60
2018-10-16T01:09:47.458Z,95.70
2018-10-16T01:12:57.293Z,95.70
2018-10-16T01:16:02.507Z,95.70
2018-10-16T01:19:07.531Z,95.80
2018-10-16T01:22:12.336Z,95.90
2018-10-16T01:25:16.312Z,95.90
2018-10-16T01:28:20.990Z,96.80
2018-10-16T01:31:24.667Z,96.70
2018-10-16T01:34:29.351Z,96.80
2018-10-16T01:37:33.455Z,97.00
2018-10-16T01:40:39.821Z,97.00
2018-10-16T01:43:43.978Z,97.00
2018-10-16T01:46:48.766Z,96.60
2018-10-16T01:49:53.339Z,95.50
2018-10-16T01:52:58.780Z,95.70
2018-10-16T01:56:04.031Z,96.20
2018-10-16T01:59:09.927Z,96.50
2018-10-16T02:02:13.007Z,96.30
2018-10-16T02:05:17.563Z,96.20
2018-10-16T02:08:21.006Z,96.50
2018-10-16T02:11:25.117Z,96.80
2018-10-16T02:14:28.851Z,97.00
2018-10-16T02:17:31.683Z,96.80
2018-10-16T02:20:35.124Z,96.70
2018-10-16T02:23:39.179Z,96.70
2018-10-16T02:26:44.271Z,97.30
2018-10-16T02:29:49.358Z,97.30
2018-10-16T02:32:54.858Z,96.90
2018-10-16T02:35:58.799Z,96.00
2018-10-16T02:39:04.563Z,96.00
2018-10-16T02:42:08.943Z,96.70
2018-10-16T02:45:13.172Z,97.20
2018-10-16T02:48:19.099Z,97.20
2018-10-16T02:51:24.787Z,97.10
2018-10-16T02:54:27.601Z,96.70
2018-10-16T02:57:32.927Z,96.80
2018-10-16T03:00:37.014Z,96.90
2018-10-16T03:03:41.287Z,96.80
2018-10-16T03:06:46.062Z,97.00
2018-10-16T03:09:49.807Z,97.20
2018-10-16T03:12:53.783Z,97.20
2018-10-16T03:15:58.075Z,97.10
2018-10-16T03:19:02.594Z,97.40
2018-10-16T03:22:06.106Z,97.70
2018-10-16T03:25:11.290Z,97.80
2018-10-16T03:28:16.663Z,97.90
2018-10-16T03:31:20.111Z,97.80
2018-10-16T03:34:25.443Z,97.70
2018-10-16T03:37:29.607Z,98.20
2018-10-16T03:40:34.518Z,98.20
2018-10-16T03:43:38.859Z,98.10
2018-10-16T03:46:43.802Z,98.20
2018-10-16T03:49:48.166Z,98.20
2018-10-16T03:52:51.847Z,98.10
2018-10-16T03:55:56.345Z,97.90
2018-10-16T03:58:59.799Z,97.70
2018-10-16T04:02:03.626Z,98.20
2018-10-16T04:05:08.010Z,98.40
2018-10-16T04:08:11.547Z,98.40
2018-10-16T04:11:15.822Z,98.10
2018-10-16T04:14:18.693Z,98.30
2018-10-16T04:17:22.547Z,98.50
2018-10-16T04:20:26.166Z,99.00
2018-10-16T04:23:30.307Z,99.10
2018-10-16T04:26:33.755Z,98.60
2018-10-16T04:29:38.468Z,97.40
2018-10-16T04:32:41.932Z,98.30
2018-10-16T04:35:46.807Z,98.80
2018-10-16T04:38:50.813Z,98.80
2018-10-16T04:41:55.274Z,99.00
2018-10-16T04:44:58.366Z,99.40
2018-10-16T04:48:01.848Z,99.60
2018-10-16T04:51:05.982Z,99.70
2018-10-16T04:54:11.210Z,99.70
2018-10-16T04:57:14.766Z,99.50
2018-10-16T05:00:19.087Z,99.50
2018-10-16T05:03:23.185Z,99.70
2018-10-16T05:06:27.691Z,99.90
2018-10-16T05:09:30.618Z,99.90
2018-10-16T05:12:35.007Z,99.90
2018-10-16T05:15:39.874Z,99.80
2018-10-16T05:18:45.774Z,99.90
2018-10-16T05:21:49.349Z,99.40
2018-10-16T05:24:54.039Z,99.80
2018-10-16T05:27:57.290Z,99.90
2018-10-16T05:31:01.797Z,99.90
2018-10-16T05:34:07.391Z,99.90
2018-10-16T05:37:11.606Z,99.90
2018-10-16T05:40:17.234Z,99.90
2018-10-16T05:43:21.375Z,99.90
2018-10-16T05:46:25.691Z,99.90
2018-10-16T05:49:29.586Z,99.90
2018-10-16T05:52:33.906Z,99.50
2018-10-16T05:55:36.914Z,99.00
2018-10-16T05:58:40.891Z,99.00
2018-10-16T06:01:45.558Z,99.30
2018-10-16T06:04:48.525Z,99.30
2018-10-16T06:07:52.775Z,99.60
2018-10-16T06:10:57.271Z,99.80
2018-10-16T06:14:02.224Z,99.90
2018-10-16T06:17:06.048Z,99.90
2018-10-16T06:20:12.027Z,99.90
2018-10-16T06:23:16.223Z,99.50
2018-10-16T06:26:21.612Z,99.20
2018-10-16T06:29:25.831Z,99.10
2018-10-16T06:32:29.954Z,99.30
2018-10-16T06:35:34.287Z,98.70
2018-10-16T06:38:39.154Z,98.60
2018-10-16T06:41:43.723Z,98.80
2018-10-16T06:44:46.774Z,98.50
2018-10-16T06:47:51.044Z,98.20
2018-10-16T06:50:54.495Z,97.80
2018-10-16T06:53:57.995Z,96.80
2018-10-16T06:57:02.026Z,96.50
2018-10-16T07:00:06.904Z,97.30
2018-10-16T07:03:11.382Z,97.80
2018-10-16T07:06:15.363Z,98.00
2018-10-16T07:09:19.295Z,97.70
2018-10-16T07:12:23.659Z,97.10
2018-10-16T07:15:28.766Z,97.20
2018-10-16T07:18:32.222Z,98.10
2018-10-16T07:21:35.999Z,97.10
2018-10-16T07:24:40.870Z,95.20
2018-10-16T07:27:45.639Z,94.80
2018-10-16T07:30:49.086Z,94.30
2018-10-16T07:33:54.499Z,93.80
2018-10-16T07:36:58.602Z,93.20
2018-10-16T07:40:02.810Z,93.00
2018-10-16T07:43:05.770Z,92.50
2018-10-16T07:46:09.927Z,92.30
2018-10-16T07:49:13.394Z,91.80
2018-10-16T07:52:16.318Z,91.90
2018-10-16T07:55:19.883Z,91.00
2018-10-16T07:58:24.113Z,91.00
2018-10-16T08:01:28.970Z,90.40
2018-10-16T08:04:32.766Z,88.80
2018-10-16T08:07:37.095Z,88.70
2018-10-16T08:10:42.270Z,88.40
2018-10-16T08:13:46.483Z,85.60
2018-10-16T08:16:50.488Z,86.00
2018-10-16T08:19:53.639Z,86.00
2018-10-16T08:22:57.168Z,84.90
2018-10-16T08:26:01.477Z,83.40
2018-10-16T08:29:05.041Z,82.30
2018-10-16T08:32:09.593Z,82.10
2018-10-16T08:35:15.721Z,81.50
2018-10-16T08:38:28.962Z,80.90
2018-10-16T08:41:37.577Z,80.70
2018-10-16T08:45:22.360Z,80.10
2018-10-16T08:48:36.742Z,79.70
2018-10-16T08:51:46.695Z,79.80
2018-10-16T08:54:50.264Z,79.40
2018-10-16T08:57:55.259Z,78.90
2018-10-16T09:00:59.622Z,77.60
2018-10-16T09:04:05.923Z,77.50
2018-10-16T09:07:10.099Z,76.10
2018-10-16T09:10:14.761Z,73.90
2018-10-16T09:13:20.479Z,74.00
2018-10-16T09:16:24.183Z,74.20
2018-10-16T09:19:27.990Z,73.90
2018-10-16T09:22:32.799Z,71.60
2018-10-16T09:25:35.819Z,72.60
2018-10-16T09:28:40.210Z,71.50
2018-10-16T09:31:44.465Z,70.80
2018-10-16T09:34:48.495Z,71.20
2018-10-16T09:37:54.191Z,71.50
2018-10-16T09:40:59.951Z,68.50
2018-10-16T09:44:04.719Z,68.50
2018-10-16T09:47:09.514Z,65.70
2018-10-16T09:50:13.574Z,65.40
2018-10-16T09:53:17.647Z,64.90
2018-10-16T09:56:22.522Z,64.40
2018-10-16T09:59:26.686Z,63.10
2018-10-16T10:02:31.075Z,61.50
2018-10-16T10:05:36.058Z,61.00
2018-10-16T10:08:41.827Z,60.20
2018-10-16T10:11:46.014Z,58.30
2018-10-16T10:14:50.918Z,54.90
2018-10-16T10:17:55.794Z,51.70
2018-10-16T10:21:00.447Z,49.10
2018-10-16T10:24:05.051Z,45.70
2018-10-16T10:27:09.547Z,43.60
2018-10-16T10:30:13.892Z,42.30
2018-10-16T10:33:17.627Z,39.80
2018-10-16T10:36:21.050Z,36.70
2018-10-16T10:39:25.467Z,37.20
2018-10-16T10:42:30.106Z,36.30
2018-10-16T10:45:34.571Z,34.00
2018-10-16T10:48:38.226Z,34.30
2018-10-16T10:51:43.083Z,33.10
2018-10-16T10:54:46.674Z,32.60
2018-10-16T10:57:51.635Z,31.60
2018-10-16T11:00:56.530Z,30.50
2018-10-16T11:04:02.411Z,30.40
2018-10-16T11:07:07.226Z,31.40
2018-10-16T11:10:12.806Z,31.90
2018-10-16T11:13:18.063Z,31.90
2018-10-16T11:16:23.492Z,31.70
2018-10-16T11:19:29.112Z,32.60
2018-10-16T11:22:33.179Z,31.80
2018-10-16T11:25:37.390Z,29.80
2018-10-16T11:28:41.079Z,29.60
2018-10-16T11:31:44.032Z,29.40
2018-10-16T11:34:47.355Z,27.60
2018-10-16T11:37:50.419Z,28.00
2018-10-16T11:40:54.347Z,28.30
2018-10-16T11:43:59.174Z,29.00
2018-10-16T11:47:02.748Z,28.00
2018-10-16T11:50:07.053Z,27.40
2018-10-16T11:53:11.282Z,27.80
2018-10-16T11:56:15.322Z,28.90
2018-10-16T11:59:20.286Z,29.40
2018-10-16T12:02:24.377Z,27.60
2018-10-16T12:05:27.446Z,27.60
2018-10-16T12:08:32.495Z,27.50
2018-10-16T12:11:37.886Z,26.60
2018-10-16T12:14:43.801Z,26.50
2018-10-16T12:17:52.831Z,26.00
2018-10-16T12:21:02.619Z,27.90
2018-10-16T12:24:07.591Z,28.70
2018-10-16T12:27:12.781Z,30.80
2018-10-16T12:30:17.831Z,33.90
2018-10-16T12:33:22.561Z,35.20
2018-10-16T12:36:25.769Z,34.60
2018-10-16T12:39:30.067Z,35.30
2018-10-16T12:42:33.188Z,36.70
2018-10-16T12:45:36.880Z,36.00
2018-10-16T12:48:41.216Z,37.30
2018-10-16T12:51:45.111Z,38.10
2018-10-16T12:54:48.831Z,37.70
2018-10-16T12:57:53.146Z,38.00
2018-10-16T13:00:56.755Z,39.10
2018-10-16T13:04:01.659Z,39.50
2018-10-16T13:07:13.363Z,39.00
2018-10-16T13:10:17.398Z,40.00
2018-10-16T13:13:29.159Z,39.70
2018-10-16T13:16:40.610Z,41.40
2018-10-16T13:19:45.294Z,38.00
2018-10-16T13:22:50.622Z,33.80
2018-10-16T13:25:55.799Z,32.30
2018-10-16T13:29:01.534Z,30.70
2018-10-16T13:32:11.991Z,29.70
2018-10-16T13:35:20.966Z,29.40
2018-10-16T13:38:29.695Z,31.70
2018-10-16T13:41:34.180Z,34.00
2018-10-16T13:44:42.007Z,34.60
2018-10-16T13:47:48.736Z,36.60
2018-10-16T13:50:56.267Z,36.40
2018-10-16T13:54:02.256Z,37.30
2018-10-16T13:57:14.194Z,39.00
2018-10-16T14:00:23.177Z,37.90
2018-10-16T14:03:35.557Z,38.20
2018-10-16T14:06:41.825Z,38.80
2018-10-16T14:09:50.463Z,37.60
2018-10-16T14:12:55.373Z,37.60
2018-10-16T14:16:12.337Z,35.80
2018-10-16T14:19:19.430Z,35.30
2018-10-16T14:22:30.543Z,34.30
2018-10-16T14:25:36.367Z,33.70
2018-10-16T14:28:41.803Z,35.50
2018-10-16T14:31:47.514Z,34.40
2018-10-16T14:34:54.873Z,34.00
2018-10-16T14:38:06.062Z,33.10
2018-10-16T14:41:12.202Z,34.00
2018-10-16T14:44:44.703Z,34.00
2018-10-16T14:47:59.767Z,34.60
2018-10-16T14:51:05.993Z,35.30
2018-10-16T14:54:22.007Z,35.90
2018-10-16T14:57:38.610Z,35.50
2018-10-16T15:00:44.058Z,36.40
2018-10-16T15:03:55.150Z,37.20
2018-10-16T15:07:02.751Z,40.20
2018-10-16T15:10:14.129Z,41.90
2018-10-16T15:13:23.640Z,43.00
2018-10-16T15:16:34.127Z,44.30
2018-10-16T15:19:43.363Z,45.10
2018-10-16T15:22:49.841Z,46.10
2018-10-16T15:25:57.066Z,47.10
2018-10-16T15:29:02.383Z,48.50
2018-10-16T15:32:15.758Z,50.10
2018-10-16T15:35:19.416Z,50.90
2018-10-16T15:38:36.513Z,51.70
2018-10-16T15:41:51.193Z,53.50
2018-10-16T15:44:57.787Z,55.00
2018-10-16T15:48:01.635Z,55.90
2018-10-16T15:51:06.653Z,56.90
2018-10-16T15:54:18.322Z,57.80
2018-10-16T15:57:23.270Z,58.60
2018-10-16T16:00:40.894Z,60.30
2018-10-16T16:03:46.848Z,60.30
2018-10-16T16:06:51.645Z,61.60
2018-10-16T16:09:57.406Z,63.90
2018-10-16T16:13:05.804Z,64.10
2018-10-16T16:16:10.704Z,64.60
2018-10-16T16:19:15.047Z,65.20
2018-10-16T16:22:18.747Z,65.30
2018-10-16T16:25:23.595Z,66.60
2018-10-16T16:28:28.598Z,67.50
2018-10-16T16:31:32.782Z,68.20
2018-10-16T16:34:37.035Z,69.30
2018-10-16T16:37:41.527Z,70.10
2018-10-16T16:40:47.427Z,70.50
2018-10-16T16:43:51.391Z,71.10
2018-10-16T16:46:55.524Z,72.00
2018-10-16T16:49:58.396Z,72.40
2018-10-16T16:53:02.569Z,73.40
2018-10-16T16:56:07.107Z,73.90
2018-10-16T16:59:12.087Z,74.10
2018-10-16T17:02:15.786Z,74.90
2018-10-16T17:05:19.244Z,75.50
2018-10-16T17:08:22.845Z,76.20
2018-10-16T17:11:26.434Z,77.20
2018-10-16T17:14:31.462Z,77.30
2018-10-16T17:17:36.730Z,76.80
2018-10-16T17:20:42.510Z,77.20
2018-10-16T17:23:46.658Z,78.40
2018-10-16T17:26:50.835Z,79.40
2018-10-16T17:29:55.164Z,80.50
2018-10-16T17:32:59.812Z,80.40
2018-10-16T17:36:03.947Z,81.10
2018-10-16T17:39:09.840Z,81.00
2018-10-16T17:42:26.040Z,81.10
2018-10-16T17:45:36.445Z,82.90
2018-10-16T17:48:47.280Z,84.10
2018-10-16T17:51:53.720Z,85.10
2018-10-16T17:55:02.176Z,86.90
2018-10-16T17:58:18.568Z,87.10
2018-10-16T18:01:23.539Z,86.50
2018-10-16T18:04:40.069Z,87.80
2018-10-16T18:07:45.473Z,87.60
2018-10-16T18:10:52.366Z,87.70
2018-10-16T18:13:59.983Z,88.20
2018-10-16T18:17:11.139Z,88.10
2018-10-16T18:20:17.591Z,88.60
2018-10-16T18:23:31.108Z,88.50
2018-10-16T18:26:36.960Z,89.10
2018-10-16T18:29:45.533Z,88.10
2018-10-16T18:32:58.000Z,88.80
2018-10-16T18:36:02.630Z,89.30
2018-10-16T18:39:09.119Z,90.00
2018-10-16T18:42:14.539Z,90.00
2018-10-16T18:45:18.647Z,90.30
2018-10-16T18:48:29.012Z,90.60
2018-10-16T18:51:35.468Z,90.40
2018-10-16T18:54:42.211Z,90.70
2018-10-16T18:57:49.336Z,90.80
2018-10-16T19:00:54.601Z,91.30
2018-10-16T19:04:00.167Z,91.40
2018-10-16T19:07:14.988Z,91.90
2018-10-16T19:10:32.274Z,91.20
2018-10-16T19:13:36.944Z,92.20
2018-10-16T19:16:41.408Z,92.70
2018-10-16T19:19:47.543Z,93.00
2018-10-16T19:22:55.786Z,93.00
2018-10-16T19:26:05.030Z,93.40
2018-10-16T19:29:15.695Z,93.20
2018-10-16T19:32:34.970Z,93.20
2018-10-16T19:35:40.170Z,92.90
2018-10-16T19:38:54.834Z,94.00
2018-10-16T19:42:02.713Z,94.20
2018-10-16T19:45:15.306Z,94.60
2018-10-16T19:48:21.828Z,94.80
2018-10-16T19:51:30.027Z,95.20
2018-10-16T19:54:36.002Z,95.00
2018-10-16T19:57:43.621Z,95.00
2018-10-16T20:00:52.685Z,95.20
2018-10-16T20:04:02.947Z,95.70
2018-10-16T20:07:12.507Z,95.40
2018-10-16T20:10:20.154Z,95.10
2018-10-16T20:13:25.851Z,94.80
2018-10-16T20:16:32.010Z,94.90
2018-10-16T20:19:38.736Z,95.10
2018-10-16T20:22:45.755Z,95.00
2018-10-16T20:25:50.802Z,95.40
2018-10-16T20:29:01.364Z,95.40
2018-10-16T20:32:09.659Z,95.40
2018-10-16T20:35:19.438Z,95.40
2018-10-16T20:38:28.315Z,95.70
2018-10-16T20:41:34.865Z,95.30
2018-10-16T20:44:40.838Z,95.10
2018-10-16T20:47:55.469Z,95.10
2018-10-16T20:51:05.700Z,95.40
2018-10-16T20:54:11.221Z,95.50
2018-10-16T20:57:23.154Z,95.50
2018-10-16T21:00:30.510Z,95.40
2018-10-16T21:03:35.196Z,95.50
2018-10-16T21:06:41.790Z,95.80
2018-10-16T21:09:47.483Z,95.70
2018-10-16T21:12:54.914Z,95.90
2018-10-16T21:16:00.140Z,95.80
2018-10-16T21:19:13.744Z,95.90
2018-10-16T21:22:22.491Z,96.10
2018-10-16T21:25:33.134Z,96.60
2018-10-16T21:28:44.284Z,97.00
2018-10-16T21:31:52.315Z,97.20
2018-10-16T21:35:02.530Z,97.00
2018-10-16T21:38:07.624Z,96.70
2018-10-16T21:41:14.451Z,96.60
2018-10-16T21:44:20.010Z,96.50
2018-10-16T21:47:39.308Z,96.50
2018-10-16T21:50:53.137Z,96.50
2018-10-16T21:53:59.920Z,97.20
2018-10-16T21:57:04.633Z,98.10
2018-10-16T22:00:18.156Z,98.50
2018-10-16T22:03:24.248Z,98.30
2018-10-16T22:06:32.907Z,98.50
2018-10-16T22:09:41.475Z,99.10
2018-10-16T22:12:50.034Z,98.50
2018-10-16T22:15:56.556Z,97.80
2018-10-16T22:19:02.439Z,97.40
2018-10-16T22:22:07.264Z,97.10
2018-10-16T22:25:15.709Z,97.40
2018-10-16T22:28:24.993Z,97.70
2018-10-16T22:31:28.435Z,98.00
2018-10-16T22:34:32.463Z,98.40
2018-10-16T22:37:36.470Z,99.00
2018-10-16T22:40:39.382Z,98.60
2018-10-16T22:43:43.912Z,98.50
2018-10-16T22:46:48.392Z,98.40
2018-10-16T22:49:52.423Z,98.10
2018-10-16T22:52:56.147Z,98.40
2018-10-16T22:56:00.752Z,99.00
2018-10-16T22:59:04.887Z,98.80
2018-10-16T23:02:08.542Z,98.80
2018-10-16T23:05:12.860Z,98.90
2018-10-16T23:08:17.206Z,98.90
2018-10-16T23:11:22.076Z,99.00
2018-10-16T23:14:27.034Z,99.00
2018-10-16T23:17:29.886Z,99.00
2018-10-16T23:20:33.964Z,99.00
2018-10-16T23:23:38.594Z,99.10
2018-10-16T23:26:42.563Z,99.40
2018-10-16T23:29:47.878Z,99.90
